Time;durP1;ratioP1;P1;durP2;ratioP2;P2;SDS_P1;SDS_P2;PMS_P1;PMS_P2;Temp;Humidity;BMP_temperature;BMP_pressure;BME280_temperature;BME280_humidity;BME280_pressure;Samples;Min_cycle;Max_cycle;Signal;HPM_P1;HPM_P2
2022/11/15 00:01:41;;;;;;;58.27;40.03;;;;;;;;;;4975206;28;20187;-77
2022/11/15 00:04:07;;;;;;;59.83;39.07;;;;;;;;;;4991899;28;20199;-76
2022/11/15 00:06:33;;;;;;;60.80;40.07;;;;;;;;;;4973142;28;20188;-77
2022/11/15 00:09:00;;;;;;;57.00;40.17;;;;;;;;;;4992262;28;20190;-77
2022/11/15 00:11:26;;;;;;;58.83;38.57;;;;;;;;;;4989927;28;20175;-76
2022/11/15 00:13:55;;;;;;;60.20;39.53;;;;;;;;;;4990047;28;20180;-77
2022/11/15 00:16:21;;;;;;;56.17;39.60;;;;;;;;;;4973712;28;20287;-77
2022/11/15 00:18:47;;;;;;;59.73;41.17;;;;;;;;;;4991797;28;20263;-76
2022/11/15 00:21:14;;;;;;;63.57;41.40;;;;;;;;;;4993158;28;20220;-77
2022/11/15 00:23:40;;;;;;;57.27;39.57;;;;;;;;;;5012810;28;20179;-77
2022/11/15 00:26:06;;;;;;;55.53;38.70;;;;;;;;;;4995639;28;20699;-77
2022/11/15 00:28:32;;;;;;;54.47;37.60;;;;;;;;;;4991345;28;20191;-77
2022/11/15 00:31:03;;;;;;;60.43;41.90;;;;;;;;;;4992661;28;20191;-76
2022/11/15 00:33:29;;;;;;;61.10;40.13;;;;;;;;;;5011409;28;20644;-77
2022/11/15 00:36:00;;;;;;;60.63;40.83;;;;;;;;;;5006983;28;20218;-77
2022/11/15 00:38:26;;;;;;;55.57;39.97;;;;;;;;;;5012068;28;20179;-77
2022/11/15 00:40:52;;;;;;;61.43;41.07;;;;;;;;;;5007816;28;20179;-76
2022/11/15 00:46:21;;;;;;;57.30;39.70;;;;;;;;;;5004593;28;20190;-76
2022/11/15 00:48:47;;;;;;;57.70;38.93;;;;;;;;;;5010916;28;20190;-77
2022/11/15 00:51:13;;;;;;;56.70;39.03;;;;;;;;;;5005852;28;20205;-77
2022/11/15 00:53:39;;;;;;;55.90;39.40;;;;;;;;;;5010119;28;20178;-77
2022/11/15 00:56:05;;;;;;;55.70;39.17;;;;;;;;;;5012214;28;20260;-77
2022/11/15 00:58:31;;;;;;;57.93;40.00;;;;;;;;;;5003862;28;20195;-77
2022/11/15 01:01:05;;;;;;;59.83;39.77;;;;;;;;;;5001257;28;20214;-76
2022/11/15 01:03:33;;;;;;;58.57;38.80;;;;;;;;;;5009363;28;20183;-77
2022/11/15 01:06:00;;;;;;;54.80;40.70;;;;;;;;;;5009080;28;20198;-77
2022/11/15 01:08:26;;;;;;;60.57;42.03;;;;;;;;;;5007411;28;20182;-77
2022/11/15 01:10:52;;;;;;;56.60;40.73;;;;;;;;;;4992707;28;20191;-77
2022/11/15 01:13:18;;;;;;;59.33;40.60;;;;;;;;;;4994862;28;20186;-77
2022/11/15 01:15:44;;;;;;;59.90;40.73;;;;;;;;;;5020860;28;20237;-76
2022/11/15 01:18:11;;;;;;;61.60;41.90;;;;;;;;;;4994994;28;20525;-77
2022/11/15 01:20:41;;;;;;;62.47;42.43;;;;;;;;;;4992692;28;20186;-77
2022/11/15 01:23:07;;;;;;;64.27;42.20;;;;;;;;;;4978524;28;20184;-77
2022/11/15 01:25:33;;;;;;;56.50;41.93;;;;;;;;;;4964664;28;20184;-77
2022/11/15 01:28:00;;;;;;;59.83;42.70;;;;;;;;;;4978424;28;20192;-77
2022/11/15 01:30:26;;;;;;;57.13;41.73;;;;;;;;;;4979166;28;20192;-76
2022/11/15 01:32:53;;;;;;;61.03;42.17;;;;;;;;;;4973556;28;20182;-76
2022/11/15 01:35:19;;;;;;;66.40;44.90;;;;;;;;;;4988075;28;20203;-77
2022/11/15 01:37:46;;;;;;;60.60;44.53;;;;;;;;;;4991106;28;20662;-76
2022/11/15 01:40:11;;;;;;;63.67;44.60;;;;;;;;;;4986064;28;20784;-76
2022/11/15 01:42:37;;;;;;;62.43;44.07;;;;;;;;;;4984650;28;20267;-76
2022/11/15 01:45:04;;;;;;;64.60;46.07;;;;;;;;;;4975300;28;20199;-77
2022/11/15 01:47:32;;;;;;;62.00;43.80;;;;;;;;;;4977396;28;20177;-77
2022/11/15 01:50:01;;;;;;;64.03;45.43;;;;;;;;;;4976854;28;20196;-77
2022/11/15 01:52:29;;;;;;;70.70;46.70;;;;;;;;;;4978978;28;20284;-77
2022/11/15 01:55:13;;;;;;;65.63;44.67;;;;;;;;;;4980166;28;20205;-76
2022/11/15 01:57:41;;;;;;;67.63;45.50;;;;;;;;;;4978380;28;20350;-76
2022/11/15 02:00:07;;;;;;;63.57;44.00;;;;;;;;;;4991024;28;20704;-77
2022/11/15 02:02:34;;;;;;;68.63;44.47;;;;;;;;;;4978283;28;21270;-76
2022/11/15 02:05:00;;;;;;;70.63;46.20;;;;;;;;;;4971325;28;20644;-76
2022/11/15 02:07:27;;;;;;;65.83;46.57;;;;;;;;;;4983878;28;20212;-76
2022/11/15 02:09:53;;;;;;;63.97;45.87;;;;;;;;;;4979704;28;20814;-76
2022/11/15 02:12:20;;;;;;;65.77;45.70;;;;;;;;;;4990298;28;20242;-77
2022/11/15 02:14:48;;;;;;;65.67;44.27;;;;;;;;;;5004473;28;20289;-76
2022/11/15 02:17:27;;;;;;;69.37;46.23;;;;;;;;;;4979611;28;20697;-76
2022/11/15 02:19:55;;;;;;;65.57;43.57;;;;;;;;;;4978903;28;20196;-76
2022/11/15 02:22:25;;;;;;;69.27;45.53;;;;;;;;;;4994840;28;20223;-76
2022/11/15 02:24:57;;;;;;;69.47;46.57;;;;;;;;;;4998794;28;20187;-77
2022/11/15 02:27:32;;;;;;;67.90;45.40;;;;;;;;;;5010108;28;20187;-76
2022/11/15 02:29:58;;;;;;;65.83;45.20;;;;;;;;;;5006180;28;20750;-77
2022/11/15 02:32:38;;;;;;;72.07;46.27;;;;;;;;;;4995504;28;20266;-76
2022/11/15 02:35:07;;;;;;;67.00;44.00;;;;;;;;;;5000091;28;20207;-76
2022/11/15 02:37:49;;;;;;;66.60;43.63;;;;;;;;;;5005124;28;20266;-76
2022/11/15 02:40:15;;;;;;;62.77;42.53;;;;;;;;;;5006180;28;20184;-76
2022/11/15 02:45:30;;;;;;;63.90;42.33;;;;;;;;;;4996056;28;20206;-77
2022/11/15 02:47:58;;;;;;;63.30;40.90;;;;;;;;;;4994299;28;20179;-76
2022/11/15 02:50:27;;;;;;;58.50;40.57;;;;;;;;;;5010335;28;20206;-77
2022/11/15 02:52:53;;;;;;;66.20;42.17;;;;;;;;;;5005210;28;20221;-77
2022/11/15 02:55:30;;;;;;;61.03;39.83;;;;;;;;;;5004832;28;20216;-77
2022/11/15 02:58:15;;;;;;;62.83;40.50;;;;;;;;;;4981045;28;20240;-77
2022/11/15 03:00:47;;;;;;;62.73;40.20;;;;;;;;;;4997741;28;20247;-76
2022/11/15 03:03:25;;;;;;;64.20;41.13;;;;;;;;;;4997276;28;20278;-77
2022/11/15 03:05:51;;;;;;;66.23;41.07;;;;;;;;;;4992647;28;20545;-77
2022/11/15 03:08:29;;;;;;;66.77;43.43;;;;;;;;;;4996934;28;20179;-76
2022/11/15 03:11:14;;;;;;;67.17;41.57;;;;;;;;;;5013705;28;20186;-77
2022/11/15 03:13:43;;;;;;;71.20;41.87;;;;;;;;;;4995142;28;20226;-76
2022/11/15 03:16:12;;;;;;;67.47;41.07;;;;;;;;;;5014282;28;20287;-76
2022/11/15 03:18:41;;;;;;;70.13;42.80;;;;;;;;;;5014146;28;20245;-76
2022/11/15 03:21:08;;;;;;;71.00;41.80;;;;;;;;;;4997076;28;20317;-76
2022/11/15 03:23:35;;;;;;;65.50;41.03;;;;;;;;;;5014462;28;20172;-76
2022/11/15 03:26:01;;;;;;;63.80;39.17;;;;;;;;;;5002658;28;20188;-77
2022/11/15 03:28:37;;;;;;;65.40;40.63;;;;;;;;;;5002303;28;20203;-77
2022/11/15 03:31:46;;;;;;;77.57;42.63;;;;;;;;;;5004005;28;20190;-77
2022/11/15 03:33:54;;;;;;;68.43;41.67;;;;;;;;;;5011917;28;20187;-76
2022/11/15 03:36:21;;;;;;;69.90;41.47;;;;;;;;;;5012450;28;20612;-77
2022/11/15 03:38:47;;;;;;;83.67;49.13;;;;;;;;;;5014388;28;20255;-77
2022/11/15 03:41:17;;;;;;;71.80;42.20;;;;;;;;;;5000270;28;20192;-77
2022/11/15 03:43:43;;;;;;;69.77;42.27;;;;;;;;;;5008519;28;20193;-77
2022/11/15 03:46:18;;;;;;;67.80;40.40;;;;;;;;;;5010405;28;20183;-77
2022/11/15 03:48:48;;;;;;;58.30;37.70;;;;;;;;;;4999450;28;20650;-76
2022/11/15 03:51:15;;;;;;;67.33;39.50;;;;;;;;;;5012209;28;20267;-77
2022/11/15 03:53:41;;;;;;;61.93;38.87;;;;;;;;;;5015424;28;20179;-76
2022/11/15 03:56:07;;;;;;;67.20;41.10;;;;;;;;;;5015187;28;20208;-76
2022/11/15 03:58:33;;;;;;;62.63;39.60;;;;;;;;;;5018136;28;20202;-76
2022/11/15 04:00:59;;;;;;;71.37;41.27;;;;;;;;;;5020708;28;20179;-76
2022/11/15 04:03:25;;;;;;;67.60;40.60;;;;;;;;;;5024774;28;20615;-76
2022/11/15 04:05:51;;;;;;;78.63;43.50;;;;;;;;;;5032957;28;20210;-76
2022/11/15 04:08:17;;;;;;;75.87;42.90;;;;;;;;;;5026827;28;20180;-76
2022/11/15 04:10:43;;;;;;;68.97;41.83;;;;;;;;;;5020290;28;20195;-76
2022/11/15 04:13:10;;;;;;;62.00;39.00;;;;;;;;;;5030756;28;20191;-76
2022/11/15 04:15:36;;;;;;;75.40;42.70;;;;;;;;;;5029601;28;20207;-76
2022/11/15 04:18:02;;;;;;;70.70;42.27;;;;;;;;;;5016531;28;20242;-76
2022/11/15 04:26:01;;;;;;;71.93;41.30;;;;;;;;;;5011630;28;20197;-76
2022/11/15 04:28:27;;;;;;;80.17;43.43;;;;;;;;;;5005050;28;20187;-76
2022/11/15 04:30:54;;;;;;;78.50;42.50;;;;;;;;;;5004871;28;20690;-77
2022/11/15 04:33:21;;;;;;;71.53;41.13;;;;;;;;;;5005124;28;20193;-77
2022/11/15 04:37:11;;;;;;;75.03;40.57;;;;;;;;;;5012762;28;20612;-76
2022/11/15 04:38:34;;;;;;;85.13;45.53;;;;;;;;;;4997494;28;20858;-76
2022/11/15 04:41:00;;;;;;;83.03;43.93;;;;;;;;;;5011465;28;20274;-77
2022/11/15 04:43:26;;;;;;;87.20;45.47;;;;;;;;;;5003253;28;20212;-76
2022/11/15 04:45:52;;;;;;;91.03;44.27;;;;;;;;;;4998518;28;20187;-76
2022/11/15 04:48:18;;;;;;;83.83;43.60;;;;;;;;;;4995915;28;20194;-76
2022/11/15 04:50:44;;;;;;;94.97;45.67;;;;;;;;;;5011593;28;20188;-77
2022/11/15 04:53:10;;;;;;;92.23;46.20;;;;;;;;;;5007087;28;20183;-76
2022/11/15 04:55:36;;;;;;;78.20;42.37;;;;;;;;;;4990776;28;20627;-77
2022/11/15 04:58:02;;;;;;;85.27;42.33;;;;;;;;;;5010290;28;20179;-77
2022/11/15 05:00:29;;;;;;;77.53;39.73;;;;;;;;;;5009979;28;20202;-76
2022/11/15 05:05:40;;;;;;;76.10;38.30;;;;;;;;;;5010609;28;20190;-76
2022/11/15 05:08:06;;;;;;;74.20;38.03;;;;;;;;;;5011421;28;20183;-77
2022/11/15 05:10:32;;;;;;;75.97;37.47;;;;;;;;;;5010643;28;20191;-76
2022/11/15 05:12:58;;;;;;;78.87;38.70;;;;;;;;;;5010130;28;20533;-77
2022/11/15 05:15:24;;;;;;;71.37;37.23;;;;;;;;;;5009977;28;20568;-77
2022/11/15 05:17:50;;;;;;;71.60;36.90;;;;;;;;;;5012102;28;20179;-76
2022/11/15 05:20:17;;;;;;;91.57;40.17;;;;;;;;;;5011089;28;20293;-76
2022/11/15 05:22:43;;;;;;;81.17;39.87;;;;;;;;;;4991932;28;20230;-76
2022/11/15 05:25:09;;;;;;;81.07;38.63;;;;;;;;;;4989789;28;20191;-77
2022/11/15 05:27:35;;;;;;;100.30;43.00;;;;;;;;;;4975320;28;20255;-76
2022/11/15 05:30:01;;;;;;;79.27;41.00;;;;;;;;;;4980467;28;20176;-76
2022/11/15 05:32:28;;;;;;;86.87;40.23;;;;;;;;;;4981975;28;20243;-77
2022/11/15 05:34:55;;;;;;;73.57;38.27;;;;;;;;;;4983707;28;20735;-77
2022/11/15 05:37:21;;;;;;;62.80;35.13;;;;;;;;;;4981628;28;20192;-76
2022/11/15 05:39:47;;;;;;;67.37;37.03;;;;;;;;;;4991330;28;20708;-77
2022/11/15 05:42:14;;;;;;;61.00;34.67;;;;;;;;;;4973983;28;20191;-78
2022/11/15 05:44:42;;;;;;;56.30;33.03;;;;;;;;;;4974856;28;20211;-76
2022/11/15 05:47:10;;;;;;;51.97;31.27;;;;;;;;;;4972652;28;20180;-76
2022/11/15 05:49:37;;;;;;;59.87;34.47;;;;;;;;;;4970897;28;20528;-76
2022/11/15 05:52:04;;;;;;;63.77;35.93;;;;;;;;;;4971143;28;20200;-76
2022/11/15 05:54:31;;;;;;;55.90;33.10;;;;;;;;;;4971413;28;20267;-76
2022/11/15 05:56:57;;;;;;;59.17;34.93;;;;;;;;;;4976785;28;20906;-76
2022/11/15 05:59:23;;;;;;;50.40;30.70;;;;;;;;;;4989938;28;20195;-76
2022/11/15 06:01:49;;;;;;;50.70;32.20;;;;;;;;;;4988873;28;20218;-76
2022/11/15 06:04:15;;;;;;;52.57;31.43;;;;;;;;;;4990823;28;20556;-76
2022/11/15 06:06:41;;;;;;;47.77;30.20;;;;;;;;;;4991853;28;20182;-76
2022/11/15 06:09:07;;;;;;;52.17;31.07;;;;;;;;;;4991481;28;20688;-77
2022/11/15 06:11:33;;;;;;;50.13;31.27;;;;;;;;;;4986084;28;20195;-77
2022/11/15 06:13:59;;;;;;;53.83;31.40;;;;;;;;;;4968353;28;20246;-76
2022/11/15 06:16:25;;;;;;;50.47;31.27;;;;;;;;;;4969771;28;20211;-77
2022/11/15 06:18:51;;;;;;;52.17;31.30;;;;;;;;;;4987376;28;20654;-76
2022/11/15 06:21:17;;;;;;;49.33;30.13;;;;;;;;;;4990033;28;20226;-76
2022/11/15 06:23:43;;;;;;;51.30;30.47;;;;;;;;;;4982298;28;20184;-76
2022/11/15 06:26:09;;;;;;;56.37;32.73;;;;;;;;;;4987592;28;20191;-77
2022/11/15 06:28:35;;;;;;;51.47;31.00;;;;;;;;;;5009387;28;20189;-76
2022/11/15 06:31:05;;;;;;;61.40;33.77;;;;;;;;;;4982699;28;20183;-77
2022/11/15 06:33:31;;;;;;;52.07;32.07;;;;;;;;;;5007285;28;20175;-77
2022/11/15 06:36:00;;;;;;;56.87;32.97;;;;;;;;;;4995689;28;20214;-77
2022/11/15 06:38:26;;;;;;;60.80;32.07;;;;;;;;;;4999004;28;20183;-77
2022/11/15 06:40:52;;;;;;;52.83;31.90;;;;;;;;;;5004207;28;20230;-77
2022/11/15 06:43:18;;;;;;;48.30;30.53;;;;;;;;;;5007340;28;20556;-77
2022/11/15 06:45:44;;;;;;;50.27;31.73;;;;;;;;;;4998528;28;20180;-77
2022/11/15 06:48:10;;;;;;;55.07;30.80;;;;;;;;;;4996235;28;20207;-76
2022/11/15 06:50:36;;;;;;;50.67;29.90;;;;;;;;;;4989306;28;20262;-77
2022/11/15 06:53:04;;;;;;;52.70;29.97;;;;;;;;;;5002337;28;20234;-76
2022/11/15 06:55:30;;;;;;;53.27;30.53;;;;;;;;;;5001404;28;20212;-77
2022/11/15 06:57:56;;;;;;;64.90;34.00;;;;;;;;;;4993577;28;20195;-77
2022/11/15 07:00:23;;;;;;;55.20;30.03;;;;;;;;;;5006650;28;20625;-77
2022/11/15 07:02:49;;;;;;;56.80;30.67;;;;;;;;;;4998955;28;20619;-76
2022/11/15 07:05:15;;;;;;;54.60;31.40;;;;;;;;;;5005030;28;20237;-78
2022/11/15 07:07:42;;;;;;;56.70;30.80;;;;;;;;;;5006511;28;20280;-76
2022/11/15 07:10:08;;;;;;;63.27;33.10;;;;;;;;;;5011653;28;20189;-77
2022/11/15 07:12:34;;;;;;;53.40;30.40;;;;;;;;;;5013490;28;20237;-78
2022/11/15 07:15:00;;;;;;;48.33;30.13;;;;;;;;;;5007090;28;20209;-76
2022/11/15 07:17:26;;;;;;;55.07;30.03;;;;;;;;;;5013404;28;20183;-76
2022/11/15 07:19:52;;;;;;;51.47;30.13;;;;;;;;;;5009487;28;20183;-76
2022/11/15 07:22:18;;;;;;;54.07;31.43;;;;;;;;;;5001969;28;20318;-77
2022/11/15 07:24:44;;;;;;;57.60;32.40;;;;;;;;;;5011997;28;20560;-77
2022/11/15 07:27:10;;;;;;;48.60;30.20;;;;;;;;;;4995703;28;20179;-77
2022/11/15 07:29:36;;;;;;;51.77;29.33;;;;;;;;;;4989868;28;20191;-77
2022/11/15 07:32:02;;;;;;;51.60;29.87;;;;;;;;;;4993054;28;20184;-76
2022/11/15 07:34:28;;;;;;;49.60;27.87;;;;;;;;;;5012510;28;20615;-77
2022/11/15 07:36:54;;;;;;;48.97;29.53;;;;;;;;;;5011660;28;20181;-76
2022/11/15 07:39:20;;;;;;;51.97;30.10;;;;;;;;;;5012992;28;20241;-77
2022/11/15 07:41:48;;;;;;;49.47;28.73;;;;;;;;;;5008275;28;20701;-76
2022/11/15 07:44:14;;;;;;;45.40;28.13;;;;;;;;;;5011536;28;20225;-77
2022/11/15 07:46:40;;;;;;;45.77;27.50;;;;;;;;;;5006839;28;20184;-76
2022/11/15 07:49:06;;;;;;;45.70;28.37;;;;;;;;;;4996179;28;20185;-76
2022/11/15 07:51:32;;;;;;;48.50;30.00;;;;;;;;;;5011119;28;20194;-77
2022/11/15 07:53:58;;;;;;;47.40;29.33;;;;;;;;;;4994947;28;20179;-77
2022/11/15 07:56:24;;;;;;;45.17;28.80;;;;;;;;;;4990609;28;20261;-77
2022/11/15 07:58:50;;;;;;;43.97;28.43;;;;;;;;;;4987751;28;20187;-78
2022/11/15 08:01:16;;;;;;;52.27;30.47;;;;;;;;;;4999537;28;20266;-77
2022/11/15 08:03:42;;;;;;;47.43;28.97;;;;;;;;;;5012256;28;20241;-77
2022/11/15 08:06:08;;;;;;;52.47;29.40;;;;;;;;;;5011989;28;20190;-75
2022/11/15 08:08:34;;;;;;;45.13;29.50;;;;;;;;;;5009199;28;20640;-76
2022/11/15 08:11:00;;;;;;;43.40;27.83;;;;;;;;;;4992879;28;20195;-77
2022/11/15 08:13:26;;;;;;;44.53;27.13;;;;;;;;;;4989014;28;20186;-76
2022/11/15 08:15:52;;;;;;;49.00;29.37;;;;;;;;;;4996611;28;20222;-76
2022/11/15 08:18:18;;;;;;;50.90;30.43;;;;;;;;;;5010431;28;20172;-77
2022/11/15 08:20:44;;;;;;;52.00;31.27;;;;;;;;;;5010747;28;20239;-76
2022/11/15 08:23:12;;;;;;;50.47;29.73;;;;;;;;;;5003943;28;20188;-76
2022/11/15 08:25:38;;;;;;;50.23;30.17;;;;;;;;;;5003413;28;20268;-76
2022/11/15 08:28:05;;;;;;;48.47;29.40;;;;;;;;;;5010935;28;20183;-77
2022/11/15 08:30:36;;;;;;;48.13;29.10;;;;;;;;;;5007879;28;20402;-76
2022/11/15 08:33:02;;;;;;;45.27;28.53;;;;;;;;;;4994967;28;20208;-77
2022/11/15 08:35:28;;;;;;;45.80;29.30;;;;;;;;;;5004557;28;20690;-76
2022/11/15 08:37:54;;;;;;;48.70;29.13;;;;;;;;;;5005678;28;20548;-76
2022/11/15 08:40:20;;;;;;;46.63;28.60;;;;;;;;;;4999952;28;20187;-76
2022/11/15 08:42:47;;;;;;;44.80;29.40;;;;;;;;;;5010318;28;20187;-77
2022/11/15 08:45:13;;;;;;;46.97;29.20;;;;;;;;;;5005226;28;20257;-76
2022/11/15 08:47:39;;;;;;;49.93;29.73;;;;;;;;;;4997951;28;20283;-76
2022/11/15 08:50:06;;;;;;;47.43;29.00;;;;;;;;;;5004191;28;20274;-76
2022/11/15 08:52:32;;;;;;;47.13;29.23;;;;;;;;;;5002067;28;20704;-76
2022/11/15 08:54:58;;;;;;;42.33;28.70;;;;;;;;;;5011300;28;20213;-76
2022/11/15 08:57:24;;;;;;;45.93;30.77;;;;;;;;;;4995000;28;20538;-76
2022/11/15 08:59:50;;;;;;;53.00;30.97;;;;;;;;;;4998330;28;20190;-77
2022/11/15 09:02:16;;;;;;;49.43;30.57;;;;;;;;;;5007509;28;20218;-77
2022/11/15 09:04:43;;;;;;;43.07;28.83;;;;;;;;;;5006498;28;20191;-76
2022/11/15 09:07:11;;;;;;;46.50;29.47;;;;;;;;;;4997600;28;20191;-76
2022/11/15 09:09:37;;;;;;;48.37;30.00;;;;;;;;;;5002736;28;20183;-76
2022/11/15 09:12:04;;;;;;;42.33;29.57;;;;;;;;;;4992452;28;20230;-76
2022/11/15 09:14:30;;;;;;;47.63;30.87;;;;;;;;;;5000885;28;20227;-75
2022/11/15 09:16:56;;;;;;;48.33;30.47;;;;;;;;;;4999595;28;20199;-76
2022/11/15 09:19:22;;;;;;;49.67;31.50;;;;;;;;;;4995282;28;20236;-77
2022/11/15 09:21:48;;;;;;;47.63;30.10;;;;;;;;;;5007923;28;20289;-77
2022/11/15 09:24:14;;;;;;;50.03;31.07;;;;;;;;;;4994599;28;20178;-76
2022/11/15 09:26:40;;;;;;;52.97;30.90;;;;;;;;;;5009272;28;20183;-76
2022/11/15 09:29:06;;;;;;;53.33;33.13;;;;;;;;;;5007938;28;20250;-76
2022/11/15 09:31:33;;;;;;;48.97;29.93;;;;;;;;;;5007391;28;20194;-77
2022/11/15 09:33:59;;;;;;;47.30;30.57;;;;;;;;;;5011527;28;20492;-78
2022/11/15 09:36:25;;;;;;;50.60;32.17;;;;;;;;;;4993663;28;20290;-77
2022/11/15 09:38:51;;;;;;;43.97;29.63;;;;;;;;;;4991595;28;20540;-77
2022/11/15 09:41:29;;;;;;;46.83;30.73;;;;;;;;;;4989191;28;20179;-77
2022/11/15 09:44:04;;;;;;;48.20;30.97;;;;;;;;;;5009973;28;20179;-76
2022/11/15 09:46:46;;;;;;;57.27;33.50;;;;;;;;;;5010086;28;20197;-77
2022/11/15 09:49:14;;;;;;;53.97;33.07;;;;;;;;;;5008730;28;20191;-76
2022/11/15 09:51:46;;;;;;;50.70;31.13;;;;;;;;;;5008280;28;20186;-77
2022/11/15 09:54:12;;;;;;;51.30;31.17;;;;;;;;;;5011575;28;20183;-76
2022/11/15 09:56:42;;;;;;;47.50;31.33;;;;;;;;;;4988739;28;20222;-76
2022/11/15 09:59:14;;;;;;;49.73;31.77;;;;;;;;;;4989110;28;20212;-76
2022/11/15 10:01:46;;;;;;;55.57;33.97;;;;;;;;;;5007914;28;20514;-76
2022/11/15 10:04:13;;;;;;;52.33;33.10;;;;;;;;;;4997402;28;20249;-78
2022/11/15 10:06:43;;;;;;;49.63;33.43;;;;;;;;;;5008783;28;20620;-77
2022/11/15 10:09:41;;;;;;;54.17;33.87;;;;;;;;;;4992819;28;20309;-78
2022/11/15 10:12:08;;;;;;;52.03;32.43;;;;;;;;;;4948045;29;20224;-78
2022/11/15 10:14:35;;;;;;;48.90;33.27;;;;;;;;;;4953655;28;20867;-77
2022/11/15 10:17:01;;;;;;;47.83;33.20;;;;;;;;;;4947821;28;20213;-78
2022/11/15 10:19:30;;;;;;;49.77;33.03;;;;;;;;;;4967202;28;20194;-77
2022/11/15 10:22:11;;;;;;;49.60;34.27;;;;;;;;;;4970248;28;20224;-77
2022/11/15 10:24:43;;;;;;;54.63;34.70;;;;;;;;;;4971477;28;20184;-77
2022/11/15 10:27:12;;;;;;;50.77;32.77;;;;;;;;;;4972590;28;20188;-77
2022/11/15 10:29:42;;;;;;;44.97;32.50;;;;;;;;;;4951363;28;20455;-77
2022/11/15 10:32:09;;;;;;;52.47;34.63;;;;;;;;;;4965053;28;20279;-76
2022/11/15 10:34:36;;;;;;;56.23;35.43;;;;;;;;;;4957727;28;20252;-77
2022/11/15 10:37:02;;;;;;;48.83;33.90;;;;;;;;;;4946968;28;20286;-78
2022/11/15 10:39:29;;;;;;;51.67;35.63;;;;;;;;;;4958635;28;20219;-78
2022/11/15 10:41:55;;;;;;;51.13;34.47;;;;;;;;;;4956792;28;20192;-77
2022/11/15 10:44:29;;;;;;;48.27;33.67;;;;;;;;;;4971569;28;20219;-76
2022/11/15 10:46:55;;;;;;;51.20;34.00;;;;;;;;;;4978407;28;20198;-78
2022/11/15 10:49:28;;;;;;;50.23;34.57;;;;;;;;;;5009383;28;20663;-78
2022/11/15 10:51:56;;;;;;;54.37;35.20;;;;;;;;;;5008975;28;20192;-76
2022/11/15 10:54:40;;;;;;;51.77;34.70;;;;;;;;;;4996788;28;20678;-75
2022/11/15 10:57:09;;;;;;;49.40;35.43;;;;;;;;;;4997816;28;20184;-77
2022/11/15 10:59:37;;;;;;;47.33;33.83;;;;;;;;;;5009807;28;20269;-76
2022/11/15 11:02:03;;;;;;;47.27;33.90;;;;;;;;;;5010689;28;20713;-76
2022/11/15 11:04:29;;;;;;;45.00;32.97;;;;;;;;;;5010612;28;20191;-77
2022/11/15 11:06:56;;;;;;;47.47;33.63;;;;;;;;;;4987761;28;20210;-77
2022/11/15 11:09:24;;;;;;;50.13;34.73;;;;;;;;;;5008538;28;20623;-76
2022/11/15 11:11:52;;;;;;;41.80;32.00;;;;;;;;;;5002745;28;20655;-76
2022/11/15 11:14:23;;;;;;;47.90;35.27;;;;;;;;;;4990858;28;20251;-77
2022/11/15 11:16:58;;;;;;;49.73;34.93;;;;;;;;;;4989022;28;20596;-77
2022/11/15 11:19:24;;;;;;;48.63;34.70;;;;;;;;;;4991816;28;20651;-77
2022/11/15 11:22:09;;;;;;;48.07;33.23;;;;;;;;;;4999462;28;20310;-77
2022/11/15 11:24:35;;;;;;;45.30;33.80;;;;;;;;;;4973634;28;20211;-76
2022/11/15 11:27:01;;;;;;;49.23;33.90;;;;;;;;;;4973428;28;20203;-75
2022/11/15 11:29:36;;;;;;;48.63;34.73;;;;;;;;;;4971792;28;20611;-77
2022/11/15 11:32:05;;;;;;;50.00;34.60;;;;;;;;;;4984275;28;20198;-77
2022/11/15 11:34:41;;;;;;;47.80;34.17;;;;;;;;;;4981078;28;20195;-77
2022/11/15 11:37:10;;;;;;;49.53;34.23;;;;;;;;;;4991911;28;20318;-77
2022/11/15 11:39:54;;;;;;;48.63;34.93;;;;;;;;;;4975552;28;20180;-77
2022/11/15 11:42:20;;;;;;;51.03;36.43;;;;;;;;;;4997109;28;20262;-77
2022/11/15 11:45:09;;;;;;;55.50;37.10;;;;;;;;;;4984193;28;20275;-77
2022/11/15 11:47:55;;;;;;;46.87;34.53;;;;;;;;;;4981420;28;20196;-78
2022/11/15 11:50:24;;;;;;;43.77;32.70;;;;;;;;;;4983319;28;20191;-78
2022/11/15 11:52:50;;;;;;;47.83;34.93;;;;;;;;;;4969236;28;20232;-77
2022/11/15 11:55:29;;;;;;;48.10;34.93;;;;;;;;;;4988662;28;20642;-76
2022/11/15 11:57:58;;;;;;;48.90;33.63;;;;;;;;;;4976379;28;20194;-77
2022/11/15 12:00:27;;;;;;;52.73;37.07;;;;;;;;;;4992487;28;20203;-76
2022/11/15 12:03:09;;;;;;;48.43;34.50;;;;;;;;;;4971892;28;20249;-78
2022/11/15 12:05:37;;;;;;;58.00;38.03;;;;;;;;;;4977947;28;20248;-77
2022/11/15 12:08:18;;;;;;;57.23;37.77;;;;;;;;;;4986058;28;20559;-78
2022/11/15 12:10:46;;;;;;;52.47;36.70;;;;;;;;;;4982607;28;20183;-77
2022/11/15 12:13:16;;;;;;;48.37;35.67;;;;;;;;;;4973876;28;20195;-78
2022/11/15 12:15:45;;;;;;;52.77;37.20;;;;;;;;;;4983341;28;20218;-77
2022/11/15 12:18:13;;;;;;;55.27;38.80;;;;;;;;;;4979458;28;20691;-77
2022/11/15 12:20:42;;;;;;;55.03;38.13;;;;;;;;;;4989598;28;20273;-76
2022/11/15 12:23:14;;;;;;;56.47;39.53;;;;;;;;;;4982245;28;20672;-75
2022/11/15 12:25:43;;;;;;;59.60;40.77;;;;;;;;;;4990069;28;20216;-75
2022/11/15 12:28:09;;;;;;;62.17;40.50;;;;;;;;;;4960749;28;20591;-75
2022/11/15 12:30:58;;;;;;;55.97;39.80;;;;;;;;;;4994083;28;20660;-76
2022/11/15 12:33:35;;;;;;;55.80;39.47;;;;;;;;;;4899342;29;20197;-76
2022/11/15 12:36:04;;;;;;;56.90;39.93;;;;;;;;;;4901825;29;20735;-77
2022/11/15 12:38:48;;;;;;;63.60;41.27;;;;;;;;;;4908659;29;20218;-77
2022/11/15 12:41:18;;;;;;;63.47;40.37;;;;;;;;;;4896137;29;20178;-75
2022/11/15 12:43:44;;;;;;;52.00;37.10;;;;;;;;;;4910866;29;20204;-77
2022/11/15 12:46:12;;;;;;;51.17;38.17;;;;;;;;;;4902242;29;20647;-76
2022/11/15 12:48:38;;;;;;;53.33;38.47;;;;;;;;;;4897445;29;20187;-75
2022/11/15 12:51:04;;;;;;;56.60;38.60;;;;;;;;;;4897505;29;20201;-76
2022/11/15 12:53:32;;;;;;;58.83;40.93;;;;;;;;;;4896402;29;20190;-76
2022/11/15 12:56:04;;;;;;;55.93;38.27;;;;;;;;;;4896129;29;20225;-77
2022/11/15 12:58:42;;;;;;;61.50;41.57;;;;;;;;;;4896592;29;20198;-75
2022/11/15 13:01:08;;;;;;;66.73;40.77;;;;;;;;;;4911802;29;20556;-76
2022/11/15 13:03:34;;;;;;;61.37;41.67;;;;;;;;;;4897234;29;20712;-75
2022/11/15 13:06:02;;;;;;;58.37;40.83;;;;;;;;;;4896437;29;20190;-76
2022/11/15 13:08:41;;;;;;;59.77;41.00;;;;;;;;;;4911851;29;20586;-75
2022/11/15 13:11:26;;;;;;;61.43;39.03;;;;;;;;;;4974025;28;20191;-77
2022/11/15 13:13:52;;;;;;;63.23;40.07;;;;;;;;;;4992513;28;20241;-76
2022/11/15 13:16:20;;;;;;;64.40;41.20;;;;;;;;;;4994281;28;20215;-76
2022/11/15 13:18:54;;;;;;;59.77;39.43;;;;;;;;;;4990753;28;20176;-77
2022/11/15 13:24:12;;;;;;;61.67;40.93;;;;;;;;;;4979867;28;20804;-77
2022/11/15 13:26:39;;;;;;;64.00;41.30;;;;;;;;;;4980097;28;20251;-77
2022/11/15 13:29:06;;;;;;;66.73;42.80;;;;;;;;;;4981352;28;20198;-75
2022/11/15 13:31:42;;;;;;;66.40;41.83;;;;;;;;;;4984086;28;20263;-76
2022/11/15 13:34:17;;;;;;;70.23;42.97;;;;;;;;;;4976658;28;20184;-77
2022/11/15 13:36:43;;;;;;;68.80;42.00;;;;;;;;;;4975629;28;20235;-77
2022/11/15 13:39:25;;;;;;;67.40;45.40;;;;;;;;;;4979124;28;20175;-76
2022/11/15 13:41:52;;;;;;;66.80;43.93;;;;;;;;;;4990206;28;20704;-77
2022/11/15 13:44:22;;;;;;;65.83;44.80;;;;;;;;;;4991456;28;20266;-76
2022/11/15 13:46:48;;;;;;;65.97;44.27;;;;;;;;;;4988943;28;20187;-76
2022/11/15 13:49:14;;;;;;;70.57;45.17;;;;;;;;;;4976505;28;20234;-76
2022/11/15 13:51:43;;;;;;;65.40;44.00;;;;;;;;;;4991020;28;20179;-77
2022/11/15 13:54:13;;;;;;;75.10;46.97;;;;;;;;;;4978916;28;20219;-77
2022/11/15 13:56:41;;;;;;;75.77;47.30;;;;;;;;;;4984173;28;20211;-78
2022/11/15 13:59:27;;;;;;;71.50;46.33;;;;;;;;;;4985478;28;20191;-78
2022/11/15 14:01:54;;;;;;;77.43;48.40;;;;;;;;;;4979276;28;20244;-78
2022/11/15 14:04:21;;;;;;;73.63;46.70;;;;;;;;;;4976234;28;20191;-77
2022/11/15 14:06:49;;;;;;;73.00;47.67;;;;;;;;;;4980805;28;20191;-76
2022/11/15 14:09:15;;;;;;;71.80;47.60;;;;;;;;;;4975175;28;20245;-76
2022/11/15 14:11:54;;;;;;;65.50;45.43;;;;;;;;;;5005513;28;20233;-76
2022/11/15 14:14:25;;;;;;;72.93;46.23;;;;;;;;;;4987483;28;20176;-76
2022/11/15 14:16:55;;;;;;;73.03;47.37;;;;;;;;;;4992614;28;20191;-74
2022/11/15 14:19:21;;;;;;;74.03;48.73;;;;;;;;;;5013376;28;20189;-76
2022/11/15 14:22:06;;;;;;;73.47;48.70;;;;;;;;;;5020845;28;20274;-75
2022/11/15 14:24:32;;;;;;;72.87;48.60;;;;;;;;;;5003010;28;20179;-76
2022/11/15 14:27:15;;;;;;;74.73;47.73;;;;;;;;;;5009552;28;20186;-75
2022/11/15 14:29:41;;;;;;;80.43;52.20;;;;;;;;;;5013223;28;20193;-76
2022/11/15 14:32:19;;;;;;;80.70;49.57;;;;;;;;;;5004927;28;20184;-76
2022/11/15 14:34:45;;;;;;;76.43;48.53;;;;;;;;;;5018735;28;20215;-75
2022/11/15 14:37:21;;;;;;;83.97;52.53;;;;;;;;;;5012218;28;20242;-76
2022/11/15 14:39:48;;;;;;;80.33;50.87;;;;;;;;;;5012123;28;20175;-77
2022/11/15 14:42:14;;;;;;;84.87;52.17;;;;;;;;;;5030619;28;20175;-75